createdAt,value
2017-09-29T00:02:14.334Z,19.80
2017-09-29T00:04:41.064Z,19.70
2017-09-29T00:07:07.769Z,20.30
2017-09-29T00:09:33.761Z,20.80
2017-09-29T00:11:59.714Z,20.63
2017-09-29T00:14:26.442Z,18.73
2017-09-29T00:16:52.410Z,19.87
2017-09-29T00:19:18.402Z,21.27
2017-09-29T00:21:44.379Z,21.37
2017-09-29T00:24:10.385Z,21.03
2017-09-29T00:26:36.347Z,21.00
2017-09-29T00:29:02.303Z,20.73
2017-09-29T00:31:28.281Z,19.77
2017-09-29T00:33:54.231Z,20.90
2017-09-29T00:36:20.202Z,20.00
2017-09-29T00:38:46.967Z,19.70
2017-09-29T00:41:12.910Z,19.90
2017-09-29T00:43:38.867Z,19.37
2017-09-29T00:46:04.834Z,21.13
2017-09-29T00:48:30.786Z,21.87
2017-09-29T00:50:56.767Z,20.47
2017-09-29T00:53:22.702Z,19.17
2017-09-29T00:55:48.685Z,19.73
2017-09-29T00:58:14.683Z,21.30
2017-09-29T01:00:41.368Z,19.33
2017-09-29T01:03:07.354Z,18.67
2017-09-29T01:05:33.305Z,20.03
2017-09-29T01:07:59.247Z,21.20
2017-09-29T01:10:25.217Z,19.80
2017-09-29T01:12:51.910Z,20.60
2017-09-29T01:15:17.890Z,22.13
2017-09-29T01:17:43.853Z,21.10
2017-09-29T01:20:10.537Z,21.10
2017-09-29T01:22:36.509Z,20.37
2017-09-29T01:25:02.453Z,21.20
2017-09-29T01:27:28.435Z,21.07
2017-09-29T01:29:54.373Z,23.30
2017-09-29T01:32:20.318Z,20.20
2017-09-29T01:34:47.042Z,20.80
2017-09-29T01:37:13.738Z,20.23
2017-09-29T01:39:39.726Z,21.03
2017-09-29T01:42:05.666Z,20.90
2017-09-29T01:44:31.630Z,19.77
2017-09-29T01:46:57.634Z,19.80
2017-09-29T01:49:23.618Z,20.47
2017-09-29T01:51:49.626Z,20.20
2017-09-29T01:54:15.630Z,21.80
2017-09-29T01:56:42.319Z,20.10
2017-09-29T01:59:08.277Z,20.43
2017-09-29T02:01:34.259Z,19.47
2017-09-29T02:04:00.970Z,20.83
2017-09-29T02:06:26.925Z,18.70
2017-09-29T02:08:52.893Z,19.07
2017-09-29T02:11:18.874Z,19.40
2017-09-29T02:13:44.832Z,18.87
2017-09-29T02:16:10.778Z,19.10
2017-09-29T02:18:36.775Z,19.90
2017-09-29T02:21:02.757Z,18.07
2017-09-29T02:23:28.701Z,20.87
2017-09-29T02:25:54.674Z,19.33
2017-09-29T02:28:20.654Z,20.13
2017-09-29T02:30:46.611Z,19.70
2017-09-29T02:33:12.579Z,21.10
2017-09-29T02:35:39.300Z,19.77
2017-09-29T02:38:05.277Z,19.30
2017-09-29T02:40:31.222Z,20.30
2017-09-29T02:42:57.937Z,18.97
2017-09-29T02:45:23.909Z,19.17
2017-09-29T02:47:49.890Z,19.20
2017-09-29T02:50:15.882Z,20.20
2017-09-29T02:52:42.562Z,19.60
2017-09-29T02:55:08.514Z,19.10
2017-09-29T02:57:39.858Z,20.20
2017-09-29T03:00:11.569Z,18.23
2017-09-29T03:02:39.083Z,18.80
2017-09-29T03:05:07.125Z,19.47
2017-09-29T03:07:33.121Z,19.40
2017-09-29T03:09:59.054Z,17.83
2017-09-29T03:12:25.034Z,20.10
2017-09-29T03:14:50.985Z,22.50
2017-09-29T03:17:16.978Z,18.23
2017-09-29T03:19:42.935Z,19.97
2017-09-29T03:22:08.882Z,20.47
2017-09-29T03:24:34.862Z,20.27
2017-09-29T03:27:01.563Z,19.40
2017-09-29T03:29:27.555Z,20.30
2017-09-29T03:31:53.646Z,19.03
2017-09-29T03:34:19.626Z,19.70
2017-09-29T03:36:45.620Z,19.67
2017-09-29T03:39:12.310Z,19.67
2017-09-29T03:41:38.258Z,21.37
2017-09-29T03:44:05.018Z,19.37
2017-09-29T03:46:30.998Z,21.23
2017-09-29T03:48:57.701Z,21.37
2017-09-29T03:51:24.421Z,21.03
2017-09-29T03:53:52.042Z,19.07
2017-09-29T03:56:18.782Z,17.73
2017-09-29T03:58:45.882Z,20.30
2017-09-29T04:01:11.850Z,18.80
2017-09-29T04:03:37.830Z,19.87
2017-09-29T04:06:03.785Z,19.20
2017-09-29T04:08:29.779Z,19.47
2017-09-29T04:10:56.564Z,22.00
2017-09-29T04:13:22.602Z,19.80
2017-09-29T04:15:48.550Z,18.50
2017-09-29T04:18:14.499Z,19.90
2017-09-29T04:20:40.520Z,18.43
2017-09-29T04:23:06.542Z,19.87
2017-09-29T04:25:33.231Z,19.30
2017-09-29T04:27:59.286Z,19.87
2017-09-29T04:30:26.009Z,19.90
2017-09-29T04:32:59.731Z,20.07
2017-09-29T04:35:25.716Z,17.87
2017-09-29T04:37:52.446Z,18.53
2017-09-29T04:40:18.434Z,20.00
2017-09-29T04:42:45.206Z,19.90
2017-09-29T04:45:11.215Z,20.97
2017-09-29T04:47:37.166Z,18.57
2017-09-29T04:50:03.113Z,20.23
2017-09-29T04:52:29.093Z,19.60
2017-09-29T04:54:55.845Z,20.10
2017-09-29T04:57:21.789Z,19.00
2017-09-29T04:59:47.761Z,18.77
2017-09-29T05:02:13.750Z,19.30
2017-09-29T05:04:40.442Z,19.23
2017-09-29T05:07:06.435Z,19.37
2017-09-29T05:09:32.415Z,19.20
2017-09-29T05:11:58.449Z,21.77
2017-09-29T05:14:24.439Z,19.30
2017-09-29T05:16:50.493Z,18.90
2017-09-29T05:19:16.490Z,19.77
2017-09-29T05:21:42.563Z,18.93
2017-09-29T05:24:08.501Z,21.00
2017-09-29T05:26:34.514Z,22.77
2017-09-29T05:29:00.485Z,21.33
2017-09-29T05:31:26.474Z,21.00
2017-09-29T05:33:53.161Z,19.30
2017-09-29T05:36:19.142Z,20.63
2017-09-29T05:38:45.139Z,18.90
2017-09-29T05:41:11.094Z,20.17
2017-09-29T05:43:37.073Z,19.30
2017-09-29T05:46:03.061Z,19.60
2017-09-29T05:48:29.009Z,19.50
2017-09-29T05:50:54.985Z,20.03
2017-09-29T05:53:21.018Z,19.80
2017-09-29T05:55:47.093Z,19.63
2017-09-29T05:58:13.045Z,19.90
2017-09-29T06:00:39.038Z,19.87
2017-09-29T06:03:05.001Z,19.60
2017-09-29T06:05:31.695Z,20.77
2017-09-29T06:07:57.678Z,20.10
2017-09-29T06:10:23.674Z,20.03
2017-09-29T06:12:49.653Z,21.90
2017-09-29T06:15:16.387Z,20.63
2017-09-29T06:17:42.339Z,20.03
2017-09-29T06:20:08.330Z,21.90
2017-09-29T06:22:34.297Z,23.87
2017-09-29T06:25:01.026Z,21.23
2017-09-29T06:27:27.734Z,19.90
2017-09-29T06:29:53.739Z,21.13
2017-09-29T06:32:19.690Z,19.30
2017-09-29T06:34:45.717Z,19.40
2017-09-29T06:37:11.673Z,19.00
2017-09-29T06:39:37.617Z,19.53
2017-09-29T06:42:03.609Z,19.47
2017-09-29T06:44:29.561Z,18.40
2017-09-29T06:46:55.562Z,18.60
2017-09-29T06:49:21.509Z,18.07
2017-09-29T06:51:47.469Z,17.60
2017-09-29T06:54:13.433Z,16.57
2017-09-29T06:56:40.165Z,16.70
2017-09-29T06:59:06.858Z,16.63
2017-09-29T07:01:32.810Z,17.00
2017-09-29T07:03:58.809Z,15.40
2017-09-29T07:06:25.510Z,17.57
2017-09-29T07:08:51.465Z,16.10
2017-09-29T07:11:17.454Z,16.17
2017-09-29T07:13:44.154Z,17.90
2017-09-29T07:16:10.155Z,17.20
2017-09-29T07:18:36.106Z,18.23
2017-09-29T07:21:02.073Z,15.60
2017-09-29T07:23:28.050Z,17.43
2017-09-29T07:25:55.498Z,16.03
2017-09-29T07:28:29.870Z,16.17
2017-09-29T07:31:03.182Z,16.80
2017-09-29T07:33:29.193Z,15.80
2017-09-29T07:35:55.141Z,16.00
2017-09-29T07:38:21.833Z,16.33
2017-09-29T07:40:47.863Z,16.93
2017-09-29T07:43:13.810Z,16.70
2017-09-29T07:45:39.762Z,15.50
2017-09-29T07:48:05.757Z,16.00
2017-09-29T07:50:31.706Z,15.90
2017-09-29T07:52:58.417Z,15.53
2017-09-29T07:55:24.413Z,16.10
2017-09-29T07:57:50.378Z,15.97
2017-09-29T08:00:16.330Z,15.10
2017-09-29T08:02:42.310Z,15.67
2017-09-29T08:05:08.258Z,15.90
2017-09-29T08:07:34.234Z,15.53
2017-09-29T08:10:00.178Z,16.07
2017-09-29T08:12:26.211Z,15.80
2017-09-29T08:14:52.882Z,14.37
2017-09-29T08:17:18.849Z,15.97
2017-09-29T08:19:44.847Z,14.77
2017-09-29T08:22:11.570Z,14.53
2017-09-29T08:24:37.510Z,15.00
2017-09-29T08:27:03.506Z,15.80
2017-09-29T08:29:29.463Z,15.20
2017-09-29T08:31:55.457Z,15.63
2017-09-29T08:34:21.430Z,15.27
2017-09-29T08:36:47.403Z,13.93
2017-09-29T08:39:13.398Z,14.10
2017-09-29T08:41:39.350Z,14.43
2017-09-29T08:44:05.333Z,14.80
2017-09-29T08:46:32.062Z,15.07
2017-09-29T08:48:58.781Z,14.73
2017-09-29T08:51:24.729Z,14.20
2017-09-29T08:53:50.714Z,14.20
2017-09-29T08:56:17.426Z,14.03
2017-09-29T08:58:44.170Z,14.27
2017-09-29T09:01:10.874Z,14.00
2017-09-29T09:03:36.826Z,15.10
2017-09-29T09:06:02.811Z,13.83
2017-09-29T09:08:29.541Z,15.70
2017-09-29T09:10:55.490Z,14.27
2017-09-29T09:13:21.441Z,14.50
2017-09-29T09:15:48.197Z,15.10
2017-09-29T09:18:14.138Z,14.13
2017-09-29T09:20:40.133Z,13.20
2017-09-29T09:23:06.081Z,13.40
2017-09-29T09:25:32.032Z,14.77
2017-09-29T09:27:58.030Z,13.90
2017-09-29T09:30:23.986Z,13.90
2017-09-29T09:32:49.938Z,13.90
2017-09-29T09:35:15.962Z,14.47
2017-09-29T09:37:41.941Z,12.67
2017-09-29T09:40:08.637Z,13.10
2017-09-29T09:42:34.627Z,13.87
2017-09-29T09:45:00.573Z,14.10
2017-09-29T09:47:26.523Z,13.60
2017-09-29T09:49:52.518Z,12.77
2017-09-29T09:52:18.471Z,11.83
2017-09-29T09:54:44.421Z,13.80
2017-09-29T09:57:11.144Z,12.57
2017-09-29T09:59:37.873Z,12.87
2017-09-29T10:02:04.570Z,12.73
2017-09-29T10:04:30.517Z,13.83
2017-09-29T10:06:56.528Z,12.73
2017-09-29T10:09:22.482Z,13.13
2017-09-29T10:11:48.470Z,12.37
2017-09-29T10:14:14.449Z,13.50
2017-09-29T10:16:40.418Z,12.53
2017-09-29T10:19:06.461Z,12.83
2017-09-29T10:21:33.150Z,12.67
2017-09-29T10:23:59.097Z,10.93
2017-09-29T10:26:25.070Z,11.43
2017-09-29T10:28:51.070Z,12.60
2017-09-29T10:31:17.027Z,11.63
2017-09-29T10:33:42.981Z,11.50
2017-09-29T10:36:08.941Z,11.30
2017-09-29T10:38:34.925Z,12.10
2017-09-29T10:41:01.608Z,12.57
2017-09-29T10:43:27.558Z,11.40
2017-09-29T10:45:54.286Z,12.00
2017-09-29T10:48:20.978Z,10.70
2017-09-29T10:50:47.000Z,11.57
2017-09-29T10:53:12.953Z,12.70
2017-09-29T10:55:38.925Z,11.40
2017-09-29T10:58:05.054Z,10.80
2017-09-29T11:00:31.789Z,12.10
2017-09-29T11:02:57.741Z,11.90
2017-09-29T11:05:23.742Z,11.30
2017-09-29T11:07:49.713Z,11.17
2017-09-29T11:10:15.670Z,10.93
2017-09-29T11:12:41.674Z,10.33
2017-09-29T11:15:07.682Z,11.20
2017-09-29T11:17:33.634Z,11.60
2017-09-29T11:20:00.321Z,11.57
2017-09-29T11:22:26.311Z,11.63
2017-09-29T11:24:52.258Z,10.87
2017-09-29T11:27:18.249Z,10.93
2017-09-29T11:29:44.208Z,11.53
2017-09-29T11:32:10.197Z,11.60
2017-09-29T11:34:36.884Z,11.00
2017-09-29T11:37:02.885Z,11.10
2017-09-29T11:39:28.873Z,10.13
2017-09-29T11:41:54.826Z,10.33
2017-09-29T11:44:20.779Z,11.07
2017-09-29T11:46:46.826Z,10.87
2017-09-29T11:49:12.774Z,11.40
2017-09-29T11:51:39.466Z,9.70
2017-09-29T11:54:05.470Z,9.70
2017-09-29T11:56:31.421Z,10.60
2017-09-29T11:58:58.121Z,10.00
2017-09-29T12:01:24.101Z,9.90
2017-09-29T12:03:50.057Z,10.63
2017-09-29T12:06:16.809Z,10.60
2017-09-29T12:08:42.761Z,9.93
2017-09-29T12:11:08.709Z,9.20
2017-09-29T12:13:34.702Z,9.07
2017-09-29T12:16:01.406Z,10.50
2017-09-29T12:18:27.402Z,10.50
2017-09-29T12:20:53.414Z,10.17
2017-09-29T12:23:19.377Z,10.20
2017-09-29T12:25:45.373Z,10.00
2017-09-29T12:28:12.105Z,10.33
2017-09-29T12:30:38.850Z,10.97
2017-09-29T12:33:04.825Z,9.63
2017-09-29T12:35:31.509Z,10.50
2017-09-29T12:37:57.494Z,10.03
2017-09-29T12:40:23.526Z,11.10
2017-09-29T12:42:49.494Z,10.30
2017-09-29T12:45:15.655Z,10.43
2017-09-29T12:47:41.528Z,10.47
2017-09-29T12:50:07.477Z,11.10
2017-09-29T12:52:33.425Z,11.23
2017-09-29T12:55:00.163Z,10.53
2017-09-29T12:57:26.122Z,10.57
2017-09-29T12:59:52.101Z,11.40
2017-09-29T13:02:18.066Z,10.87
2017-09-29T13:04:44.802Z,10.50
2017-09-29T13:07:11.502Z,10.83
2017-09-29T13:09:37.494Z,10.87
2017-09-29T13:12:03.442Z,11.40
2017-09-29T13:14:30.169Z,10.80
2017-09-29T13:16:56.861Z,9.07
2017-09-29T13:19:22.856Z,10.70
2017-09-29T13:21:48.813Z,11.20
2017-09-29T13:24:14.777Z,10.40
2017-09-29T13:26:40.754Z,10.90
2017-09-29T13:29:06.710Z,9.50
2017-09-29T13:31:32.709Z,10.83
2017-09-29T13:33:58.698Z,10.00
2017-09-29T13:36:24.673Z,10.57
2017-09-29T13:38:50.683Z,9.90
2017-09-29T13:41:16.765Z,9.93
2017-09-29T13:43:43.458Z,10.90
2017-09-29T13:46:09.446Z,9.40
2017-09-29T13:48:35.414Z,10.40
2017-09-29T13:51:01.367Z,10.40
2017-09-29T13:53:27.353Z,9.93
2017-09-29T13:55:53.330Z,10.40
2017-09-29T13:58:19.285Z,9.97
2017-09-29T14:00:45.281Z,10.03
2017-09-29T14:03:11.233Z,10.10
2017-09-29T14:05:37.218Z,10.77
2017-09-29T14:08:03.234Z,10.57
2017-09-29T14:10:29.182Z,9.90
2017-09-29T14:12:55.173Z,10.50
2017-09-29T14:15:21.121Z,10.60
2017-09-29T14:17:47.810Z,10.80
2017-09-29T14:20:13.797Z,8.90
2017-09-29T14:22:39.757Z,9.77
2017-09-29T14:25:05.774Z,9.10
2017-09-29T14:27:31.746Z,9.33
2017-09-29T14:29:58.477Z,10.27
2017-09-29T14:32:24.465Z,10.10
2017-09-29T14:34:51.154Z,10.40
2017-09-29T14:37:17.133Z,10.23
2017-09-29T14:39:43.145Z,10.03
2017-09-29T14:42:09.100Z,9.43
2017-09-29T14:44:35.051Z,8.70
2017-09-29T14:47:01.075Z,9.07
2017-09-29T14:49:27.050Z,9.97
2017-09-29T14:51:53.781Z,10.40
2017-09-29T14:54:20.469Z,11.37
2017-09-29T14:56:46.417Z,9.03
2017-09-29T14:59:12.414Z,9.33
2017-09-29T15:01:39.104Z,9.10
2017-09-29T15:04:05.106Z,10.40
2017-09-29T15:06:31.131Z,9.70
2017-09-29T15:08:57.087Z,9.97
2017-09-29T15:11:23.065Z,10.07
2017-09-29T15:13:49.793Z,10.60
2017-09-29T15:16:16.511Z,10.00
2017-09-29T15:18:42.581Z,9.87
2017-09-29T15:21:08.541Z,9.73
2017-09-29T15:23:35.245Z,10.57
2017-09-29T15:26:01.262Z,9.97
2017-09-29T15:28:27.208Z,9.57
2017-09-29T15:30:53.154Z,10.97
2017-09-29T15:33:19.177Z,10.90
2017-09-29T15:35:45.130Z,9.93
2017-09-29T15:38:11.082Z,9.00
2017-09-29T15:40:37.077Z,10.57
2017-09-29T15:43:03.103Z,9.47
2017-09-29T15:45:29.058Z,10.47
2017-09-29T15:47:55.014Z,10.17
2017-09-29T15:50:21.013Z,9.60
2017-09-29T15:52:46.953Z,11.40
2017-09-29T15:55:12.905Z,9.63
2017-09-29T15:57:38.885Z,10.20
2017-09-29T16:00:05.582Z,11.30
2017-09-29T16:02:31.595Z,10.13
2017-09-29T16:04:57.625Z,10.13
2017-09-29T16:07:25.053Z,10.20
2017-09-29T16:09:51.029Z,11.20
2017-09-29T16:12:16.974Z,11.60
2017-09-29T16:14:42.974Z,11.00
2017-09-29T16:17:08.929Z,12.63
2017-09-29T16:19:34.885Z,12.13
2017-09-29T16:22:00.882Z,11.80
2017-09-29T16:24:26.838Z,11.20
2017-09-29T16:26:53.570Z,11.37
2017-09-29T16:29:19.517Z,12.17
2017-09-29T16:31:45.469Z,11.07
2017-09-29T16:34:12.230Z,11.87
2017-09-29T16:36:38.229Z,13.63
2017-09-29T16:39:04.213Z,10.93
2017-09-29T16:41:30.914Z,12.83
2017-09-29T16:43:57.649Z,11.90
2017-09-29T16:46:23.598Z,12.30
2017-09-29T16:48:49.629Z,12.07
2017-09-29T16:51:15.621Z,13.30
2017-09-29T16:53:41.570Z,11.83
2017-09-29T16:56:07.539Z,12.77
2017-09-29T16:58:33.515Z,12.50
2017-09-29T17:01:00.237Z,11.93
2017-09-29T17:03:27.021Z,12.90
2017-09-29T17:05:52.986Z,13.10
2017-09-29T17:08:18.932Z,13.80
2017-09-29T17:10:44.911Z,12.20
2017-09-29T17:13:10.857Z,11.50
2017-09-29T17:15:43.809Z,12.53
2017-09-29T17:18:09.785Z,13.90
2017-09-29T17:20:36.481Z,12.93
2017-09-29T17:23:03.222Z,12.53
2017-09-29T17:25:29.938Z,12.50
2017-09-29T17:27:55.936Z,13.77
2017-09-29T17:30:21.965Z,11.83
2017-09-29T17:32:48.678Z,13.33
2017-09-29T17:35:14.630Z,12.77
2017-09-29T17:37:40.614Z,11.87
2017-09-29T17:40:07.362Z,12.20
2017-09-29T17:42:33.392Z,11.43
2017-09-29T17:44:59.396Z,12.47
2017-09-29T17:47:25.358Z,13.00
2017-09-29T17:49:51.345Z,11.60
2017-09-29T17:52:18.094Z,12.47
2017-09-29T17:54:44.083Z,12.77
2017-09-29T17:57:10.778Z,13.47
2017-09-29T17:59:36.761Z,14.93
2017-09-29T18:02:02.721Z,16.43
2017-09-29T18:04:29.412Z,18.37
2017-09-29T18:06:55.394Z,16.33
2017-09-29T18:09:29.078Z,15.70
2017-09-29T18:11:55.079Z,14.50
2017-09-29T18:14:21.029Z,14.40
2017-09-29T18:16:46.989Z,14.43
2017-09-29T18:19:12.998Z,13.17
2017-09-29T18:21:38.943Z,14.20
2017-09-29T18:24:04.881Z,13.17
2017-09-29T18:26:31.610Z,13.77
2017-09-29T18:28:58.306Z,13.17
2017-09-29T18:31:24.293Z,15.80
2017-09-29T18:33:50.279Z,15.23
2017-09-29T18:36:16.238Z,15.67
2017-09-29T18:38:42.230Z,15.67
2017-09-29T18:41:08.212Z,16.80
2017-09-29T18:43:36.073Z,16.30
2017-09-29T18:46:04.074Z,16.07
2017-09-29T18:48:30.066Z,16.53
2017-09-29T18:50:56.014Z,17.37
2017-09-29T18:53:21.969Z,16.57
2017-09-29T18:55:47.954Z,17.57
2017-09-29T18:58:14.186Z,15.83
2017-09-29T19:00:40.174Z,15.53
2017-09-29T19:03:06.130Z,15.63
2017-09-29T19:05:32.106Z,15.73
2017-09-29T19:07:58.057Z,16.77
2017-09-29T19:10:24.061Z,16.73
2017-09-29T19:12:50.025Z,17.03
2017-09-29T19:15:15.985Z,18.57
2017-09-29T19:17:42.734Z,17.23
2017-09-29T19:20:08.685Z,17.97
2017-09-29T19:22:34.633Z,17.40
2017-09-29T19:25:01.437Z,17.63
2017-09-29T19:27:27.423Z,17.10
2017-09-29T19:29:53.372Z,16.27
2017-09-29T19:32:20.226Z,16.90
2017-09-29T19:34:46.190Z,17.07
2017-09-29T19:37:12.146Z,17.53
2017-09-29T19:39:38.142Z,16.50
2017-09-29T19:42:04.845Z,17.57
2017-09-29T19:44:30.840Z,18.37
2017-09-29T19:46:56.834Z,18.20
2017-09-29T19:49:22.791Z,17.93
2017-09-29T19:51:49.549Z,17.97
2017-09-29T19:54:15.680Z,18.03
2017-09-29T19:56:41.642Z,18.93
2017-09-29T19:59:07.626Z,18.47
2017-09-29T20:01:33.586Z,17.60
2017-09-29T20:03:59.578Z,16.40
2017-09-29T20:06:25.534Z,16.60
2017-09-29T20:08:51.494Z,15.30
2017-09-29T20:11:17.491Z,15.40
2017-09-29T20:13:43.454Z,16.40
2017-09-29T20:16:09.442Z,16.37
2017-09-29T20:18:35.424Z,14.10
2017-09-29T20:21:01.430Z,16.20
2017-09-29T20:23:27.391Z,16.53
2017-09-29T20:25:53.338Z,16.00
2017-09-29T20:28:19.337Z,16.23
2017-09-29T20:30:46.042Z,14.37
2017-09-29T20:33:12.040Z,15.80
2017-09-29T20:35:38.010Z,15.63
2017-09-29T20:38:03.957Z,16.00
2017-09-29T20:40:29.997Z,16.80
2017-09-29T20:42:56.732Z,14.23
2017-09-29T20:45:22.687Z,15.90
2017-09-29T20:47:48.682Z,14.80
2017-09-29T20:50:15.493Z,15.10
2017-09-29T20:52:41.437Z,16.33
2017-09-29T20:55:07.422Z,14.50
2017-09-29T20:57:33.378Z,16.70
2017-09-29T20:59:59.353Z,15.50
2017-09-29T21:02:25.354Z,16.40
2017-09-29T21:04:51.301Z,15.53
2017-09-29T21:07:18.390Z,14.33
2017-09-29T21:09:44.369Z,15.70
2017-09-29T21:12:10.325Z,15.63
2017-09-29T21:14:36.306Z,14.70
2017-09-29T21:17:02.298Z,15.67
2017-09-29T21:19:28.249Z,14.90
2017-09-29T21:21:54.238Z,15.80
2017-09-29T21:24:20.187Z,17.03
2017-09-29T21:26:46.162Z,15.10
2017-09-29T21:29:12.153Z,14.83
2017-09-29T21:31:38.093Z,14.80
2017-09-29T21:34:04.104Z,16.20
2017-09-29T21:36:30.057Z,14.43
2017-09-29T21:38:56.005Z,14.97
2017-09-29T21:41:22.018Z,15.93
2017-09-29T21:43:47.976Z,15.20
2017-09-29T21:46:14.255Z,13.60
2017-09-29T21:48:40.241Z,15.77
2017-09-29T21:51:07.002Z,15.60
2017-09-29T21:53:32.953Z,16.10
2017-09-29T21:55:58.931Z,16.93
2017-09-29T21:58:24.886Z,15.73
2017-09-29T22:00:51.625Z,14.53
2017-09-29T22:03:17.572Z,15.60
2017-09-29T22:05:43.558Z,15.40
2017-09-29T22:08:09.541Z,14.77
2017-09-29T22:10:36.265Z,16.00
2017-09-29T22:13:03.005Z,15.23
2017-09-29T22:15:28.949Z,16.00
2017-09-29T22:17:54.892Z,15.00
2017-09-29T22:20:20.889Z,16.63
2017-09-29T22:22:46.850Z,17.37
2017-09-29T22:25:12.801Z,16.97
2017-09-29T22:27:38.786Z,15.20
2017-09-29T22:30:04.734Z,15.30
2017-09-29T22:32:31.449Z,14.20
2017-09-29T22:34:57.393Z,14.97
2017-09-29T22:37:23.409Z,14.40
2017-09-29T22:39:49.363Z,15.43
2017-09-29T22:42:15.378Z,14.80
2017-09-29T22:44:41.334Z,17.00
2017-09-29T22:47:07.338Z,16.97
2017-09-29T22:49:33.282Z,15.07
2017-09-29T22:51:59.245Z,14.17
2017-09-29T22:54:25.225Z,14.90
2017-09-29T22:56:51.168Z,15.70
2017-09-29T22:59:17.157Z,14.50
2017-09-29T23:01:43.849Z,14.87
2017-09-29T23:04:09.812Z,15.60
2017-09-29T23:06:35.801Z,15.10
2017-09-29T23:09:02.535Z,15.83
2017-09-29T23:11:28.489Z,14.50
2017-09-29T23:13:54.429Z,13.70
2017-09-29T23:16:21.153Z,14.60
2017-09-29T23:18:47.105Z,15.27
2017-09-29T23:21:13.103Z,14.73
2017-09-29T23:23:39.793Z,15.10
2017-09-29T23:26:05.758Z,15.40
2017-09-29T23:28:31.744Z,15.87
2017-09-29T23:30:58.470Z,15.03
2017-09-29T23:33:25.214Z,15.83
2017-09-29T23:35:51.163Z,15.57
2017-09-29T23:38:17.117Z,16.27
2017-09-29T23:40:43.841Z,16.00
2017-09-29T23:43:10.565Z,15.43
2017-09-29T23:45:37.265Z,15.37
2017-09-29T23:48:03.223Z,14.87
2017-09-29T23:50:29.218Z,13.70
2017-09-29T23:52:55.173Z,14.70
2017-09-29T23:55:21.132Z,15.50
2017-09-29T23:57:47.124Z,14.77
